sensor_id;sensor_type;location;lat;lon;timestamp;P1;durP1;ratioP1;P2;durP2;ratioP2
37847;SDS011;23688;33.130;-117.188;2022-07-10T00:01:21;9.68;;;3.65;;
37847;SDS011;23688;33.130;-117.188;2022-07-10T00:03:47;7.40;;;3.35;;
37847;SDS011;23688;33.130;-117.188;2022-07-10T00:06:15;7.80;;;3.57;;
37847;SDS011;23688;33.130;-117.188;2022-07-10T00:08:42;10.77;;;3.72;;
37847;SDS011;23688;33.130;-117.188;2022-07-10T00:11:08;5.95;;;3.60;;
37847;SDS011;23688;33.130;-117.188;2022-07-10T00:13:35;9.63;;;3.42;;
37847;SDS011;23688;33.130;-117.188;2022-07-10T00:16:02;6.45;;;3.90;;
37847;SDS011;23688;33.130;-117.188;2022-07-10T00:18:28;8.93;;;3.72;;
37847;SDS011;23688;33.130;-117.188;2022-07-10T00:20:55;8.85;;;3.60;;
37847;SDS011;23688;33.130;-117.188;2022-07-10T00:23:21;7.53;;;3.42;;
37847;SDS011;23688;33.130;-117.188;2022-07-10T00:25:48;5.72;;;3.47;;
37847;SDS011;23688;33.130;-117.188;2022-07-10T00:28:14;7.45;;;3.50;;
37847;SDS011;23688;33.130;-117.188;2022-07-10T00:30:40;5.22;;;3.22;;
37847;SDS011;23688;33.130;-117.188;2022-07-10T00:33:07;8.13;;;3.63;;
37847;SDS011;23688;33.130;-117.188;2022-07-10T00:35:33;7.30;;;3.60;;
37847;SDS011;23688;33.130;-117.188;2022-07-10T00:38:04;5.50;;;3.25;;
37847;SDS011;23688;33.130;-117.188;2022-07-10T00:40:30;6.57;;;3.95;;
37847;SDS011;23688;33.130;-117.188;2022-07-10T00:42:56;10.32;;;3.53;;
37847;SDS011;23688;33.130;-117.188;2022-07-10T00:45:23;13.00;;;3.50;;
37847;SDS011;23688;33.130;-117.188;2022-07-10T00:47:49;6.57;;;3.15;;
37847;SDS011;23688;33.130;-117.188;2022-07-10T00:50:15;5.65;;;3.35;;
37847;SDS011;23688;33.130;-117.188;2022-07-10T00:52:42;5.85;;;3.60;;
37847;SDS011;23688;33.130;-117.188;2022-07-10T00:55:08;11.30;;;3.28;;
37847;SDS011;23688;33.130;-117.188;2022-07-10T00:57:35;7.55;;;3.47;;
37847;SDS011;23688;33.130;-117.188;2022-07-10T01:00:03;6.45;;;3.60;;
37847;SDS011;23688;33.130;-117.188;2022-07-10T01:02:30;7.78;;;3.28;;
37847;SDS011;23688;33.130;-117.188;2022-07-10T01:04:57;8.27;;;3.50;;
37847;SDS011;23688;33.130;-117.188;2022-07-10T01:07:23;5.75;;;3.00;;
37847;SDS011;23688;33.130;-117.188;2022-07-10T01:09:50;9.45;;;3.35;;
37847;SDS011;23688;33.130;-117.188;2022-07-10T01:12:16;6.32;;;3.13;;
37847;SDS011;23688;33.130;-117.188;2022-07-10T01:14:44;9.10;;;2.92;;
37847;SDS011;23688;33.130;-117.188;2022-07-10T01:17:11;10.13;;;2.78;;
37847;SDS011;23688;33.130;-117.188;2022-07-10T01:19:39;5.25;;;3.28;;
37847;SDS011;23688;33.130;-117.188;2022-07-10T01:22:05;7.28;;;2.75;;
37847;SDS011;23688;33.130;-117.188;2022-07-10T01:24:31;4.03;;;2.42;;
37847;SDS011;23688;33.130;-117.188;2022-07-10T01:26:58;13.75;;;2.97;;
37847;SDS011;23688;33.130;-117.188;2022-07-10T01:29:24;10.05;;;2.70;;
37847;SDS011;23688;33.130;-117.188;2022-07-10T01:31:52;5.53;;;2.10;;
37847;SDS011;23688;33.130;-117.188;2022-07-10T01:34:18;7.57;;;2.80;;
37847;SDS011;23688;33.130;-117.188;2022-07-10T01:36:45;6.03;;;2.70;;
37847;SDS011;23688;33.130;-117.188;2022-07-10T01:39:12;4.47;;;2.03;;
37847;SDS011;23688;33.130;-117.188;2022-07-10T01:41:38;6.40;;;2.35;;
37847;SDS011;23688;33.130;-117.188;2022-07-10T01:44:05;5.30;;;2.53;;
37847;SDS011;23688;33.130;-117.188;2022-07-10T01:46:31;5.60;;;2.78;;
37847;SDS011;23688;33.130;-117.188;2022-07-10T01:48:57;6.00;;;2.35;;
37847;SDS011;23688;33.130;-117.188;2022-07-10T01:51:24;6.15;;;2.85;;
37847;SDS011;23688;33.130;-117.188;2022-07-10T01:53:50;5.57;;;2.35;;
37847;SDS011;23688;33.130;-117.188;2022-07-10T01:56:16;8.25;;;3.05;;
37847;SDS011;23688;33.130;-117.188;2022-07-10T01:58:43;4.22;;;2.50;;
37847;SDS011;23688;33.130;-117.188;2022-07-10T02:01:09;6.53;;;3.53;;
37847;SDS011;23688;33.130;-117.188;2022-07-10T02:03:36;9.73;;;4.43;;
37847;SDS011;23688;33.130;-117.188;2022-07-10T02:06:21;10.73;;;4.30;;
37847;SDS011;23688;33.130;-117.188;2022-07-10T02:08:48;14.07;;;3.97;;
37847;SDS011;23688;33.130;-117.188;2022-07-10T02:11:14;10.63;;;4.65;;
37847;SDS011;23688;33.130;-117.188;2022-07-10T02:13:40;8.15;;;4.75;;
37847;SDS011;23688;33.130;-117.188;2022-07-10T02:16:07;7.57;;;3.97;;
37847;SDS011;23688;33.130;-117.188;2022-07-10T02:18:33;5.30;;;3.35;;
37847;SDS011;23688;33.130;-117.188;2022-07-10T02:20:59;8.30;;;4.47;;
37847;SDS011;23688;33.130;-117.188;2022-07-10T02:23:26;8.50;;;4.72;;
37847;SDS011;23688;33.130;-117.188;2022-07-10T02:25:53;9.55;;;4.40;;
37847;SDS011;23688;33.130;-117.188;2022-07-10T02:28:19;7.65;;;4.35;;
37847;SDS011;23688;33.130;-117.188;2022-07-10T02:30:46;9.38;;;4.28;;
37847;SDS011;23688;33.130;-117.188;2022-07-10T02:33:12;7.18;;;5.22;;
37847;SDS011;23688;33.130;-117.188;2022-07-10T02:35:38;7.43;;;5.03;;
37847;SDS011;23688;33.130;-117.188;2022-07-10T02:38:04;8.45;;;5.20;;
37847;SDS011;23688;33.130;-117.188;2022-07-10T02:40:31;10.73;;;4.50;;
37847;SDS011;23688;33.130;-117.188;2022-07-10T02:42:57;13.82;;;6.65;;
37847;SDS011;23688;33.130;-117.188;2022-07-10T02:45:23;8.05;;;5.00;;
37847;SDS011;23688;33.130;-117.188;2022-07-10T02:47:50;10.05;;;5.43;;
37847;SDS011;23688;33.130;-117.188;2022-07-10T02:50:16;9.75;;;5.57;;
37847;SDS011;23688;33.130;-117.188;2022-07-10T02:52:42;15.60;;;6.20;;
37847;SDS011;23688;33.130;-117.188;2022-07-10T02:55:09;8.38;;;5.47;;
37847;SDS011;23688;33.130;-117.188;2022-07-10T02:57:35;8.00;;;6.18;;
37847;SDS011;23688;33.130;-117.188;2022-07-10T03:00:02;11.00;;;6.13;;
37847;SDS011;23688;33.130;-117.188;2022-07-10T03:02:29;9.00;;;6.40;;
37847;SDS011;23688;33.130;-117.188;2022-07-10T03:04:55;12.32;;;6.22;;
37847;SDS011;23688;33.130;-117.188;2022-07-10T03:07:21;7.88;;;5.90;;
37847;SDS011;23688;33.130;-117.188;2022-07-10T03:09:47;14.60;;;6.63;;
37847;SDS011;23688;33.130;-117.188;2022-07-10T03:12:14;8.82;;;5.85;;
37847;SDS011;23688;33.130;-117.188;2022-07-10T03:14:40;11.45;;;6.65;;
37847;SDS011;23688;33.130;-117.188;2022-07-10T03:17:07;12.50;;;6.63;;
37847;SDS011;23688;33.130;-117.188;2022-07-10T03:19:33;12.95;;;6.70;;
37847;SDS011;23688;33.130;-117.188;2022-07-10T03:21:59;11.70;;;6.40;;
37847;SDS011;23688;33.130;-117.188;2022-07-10T03:24:26;14.88;;;6.90;;
37847;SDS011;23688;33.130;-117.188;2022-07-10T03:26:52;12.45;;;6.28;;
37847;SDS011;23688;33.130;-117.188;2022-07-10T03:29:18;10.20;;;6.43;;
37847;SDS011;23688;33.130;-117.188;2022-07-10T03:31:44;11.40;;;5.95;;
37847;SDS011;23688;33.130;-117.188;2022-07-10T03:34:11;9.65;;;5.70;;
37847;SDS011;23688;33.130;-117.188;2022-07-10T03:36:37;9.73;;;6.25;;
37847;SDS011;23688;33.130;-117.188;2022-07-10T03:39:03;11.98;;;5.53;;
37847;SDS011;23688;33.130;-117.188;2022-07-10T03:41:30;14.43;;;5.93;;
37847;SDS011;23688;33.130;-117.188;2022-07-10T03:43:56;13.57;;;5.20;;
37847;SDS011;23688;33.130;-117.188;2022-07-10T03:46:22;13.45;;;5.75;;
37847;SDS011;23688;33.130;-117.188;2022-07-10T03:48:48;9.82;;;4.80;;
37847;SDS011;23688;33.130;-117.188;2022-07-10T03:51:15;10.02;;;5.18;;
37847;SDS011;23688;33.130;-117.188;2022-07-10T03:53:41;13.07;;;5.18;;
37847;SDS011;23688;33.130;-117.188;2022-07-10T03:56:07;10.70;;;4.82;;
37847;SDS011;23688;33.130;-117.188;2022-07-10T03:58:34;12.75;;;5.32;;
37847;SDS011;23688;33.130;-117.188;2022-07-10T04:01:00;12.50;;;5.15;;
37847;SDS011;23688;33.130;-117.188;2022-07-10T04:03:26;15.98;;;5.20;;
37847;SDS011;23688;33.130;-117.188;2022-07-10T04:05:53;12.80;;;5.70;;
37847;SDS011;23688;33.130;-117.188;2022-07-10T04:08:19;8.95;;;5.25;;
37847;SDS011;23688;33.130;-117.188;2022-07-10T04:10:45;15.77;;;4.47;;
37847;SDS011;23688;33.130;-117.188;2022-07-10T04:13:12;10.30;;;4.38;;
37847;SDS011;23688;33.130;-117.188;2022-07-10T04:15:40;8.68;;;5.45;;
37847;SDS011;23688;33.130;-117.188;2022-07-10T04:18:07;14.00;;;5.38;;
37847;SDS011;23688;33.130;-117.188;2022-07-10T04:20:33;8.50;;;5.43;;
37847;SDS011;23688;33.130;-117.188;2022-07-10T04:22:59;8.00;;;4.00;;
37847;SDS011;23688;33.130;-117.188;2022-07-10T04:25:26;8.93;;;4.22;;
37847;SDS011;23688;33.130;-117.188;2022-07-10T04:27:52;10.77;;;4.47;;
37847;SDS011;23688;33.130;-117.188;2022-07-10T04:30:18;8.45;;;4.18;;
37847;SDS011;23688;33.130;-117.188;2022-07-10T04:32:45;9.88;;;4.57;;
37847;SDS011;23688;33.130;-117.188;2022-07-10T04:35:11;11.00;;;4.38;;
37847;SDS011;23688;33.130;-117.188;2022-07-10T04:37:37;11.57;;;4.70;;
37847;SDS011;23688;33.130;-117.188;2022-07-10T04:40:04;8.98;;;4.15;;
37847;SDS011;23688;33.130;-117.188;2022-07-10T04:42:31;9.02;;;4.25;;
37847;SDS011;23688;33.130;-117.188;2022-07-10T04:44:57;11.65;;;4.72;;
37847;SDS011;23688;33.130;-117.188;2022-07-10T04:47:23;15.43;;;4.50;;
37847;SDS011;23688;33.130;-117.188;2022-07-10T04:49:49;10.18;;;5.13;;
37847;SDS011;23688;33.130;-117.188;2022-07-10T04:52:17;10.87;;;4.60;;
37847;SDS011;23688;33.130;-117.188;2022-07-10T04:54:44;10.52;;;4.68;;
37847;SDS011;23688;33.130;-117.188;2022-07-10T04:57:13;11.80;;;4.50;;
37847;SDS011;23688;33.130;-117.188;2022-07-10T04:59:40;9.93;;;4.47;;
37847;SDS011;23688;33.130;-117.188;2022-07-10T05:02:06;7.47;;;4.30;;
37847;SDS011;23688;33.130;-117.188;2022-07-10T05:04:33;8.57;;;4.63;;
37847;SDS011;23688;33.130;-117.188;2022-07-10T05:06:59;13.45;;;4.85;;
37847;SDS011;23688;33.130;-117.188;2022-07-10T05:09:26;13.48;;;4.20;;
37847;SDS011;23688;33.130;-117.188;2022-07-10T05:11:53;13.35;;;4.82;;
37847;SDS011;23688;33.130;-117.188;2022-07-10T05:14:19;9.80;;;4.43;;
37847;SDS011;23688;33.130;-117.188;2022-07-10T05:16:45;8.70;;;4.40;;
37847;SDS011;23688;33.130;-117.188;2022-07-10T05:19:12;12.52;;;4.30;;
37847;SDS011;23688;33.130;-117.188;2022-07-10T05:21:38;17.77;;;5.22;;
37847;SDS011;23688;33.130;-117.188;2022-07-10T05:24:05;13.40;;;4.40;;
37847;SDS011;23688;33.130;-117.188;2022-07-10T05:26:31;8.68;;;4.65;;
37847;SDS011;23688;33.130;-117.188;2022-07-10T05:28:58;8.93;;;4.43;;
37847;SDS011;23688;33.130;-117.188;2022-07-10T05:31:27;6.47;;;4.10;;
37847;SDS011;23688;33.130;-117.188;2022-07-10T05:33:53;8.07;;;4.55;;
37847;SDS011;23688;33.130;-117.188;2022-07-10T05:36:20;9.80;;;5.32;;
37847;SDS011;23688;33.130;-117.188;2022-07-10T05:38:46;7.82;;;4.53;;
37847;SDS011;23688;33.130;-117.188;2022-07-10T05:41:12;12.43;;;4.68;;
37847;SDS011;23688;33.130;-117.188;2022-07-10T05:43:39;10.23;;;4.88;;
37847;SDS011;23688;33.130;-117.188;2022-07-10T05:46:05;7.78;;;4.50;;
37847;SDS011;23688;33.130;-117.188;2022-07-10T05:48:32;10.27;;;5.85;;
37847;SDS011;23688;33.130;-117.188;2022-07-10T05:50:58;7.78;;;4.78;;
37847;SDS011;23688;33.130;-117.188;2022-07-10T05:53:25;10.75;;;4.70;;
37847;SDS011;23688;33.130;-117.188;2022-07-10T05:55:51;10.13;;;5.35;;
37847;SDS011;23688;33.130;-117.188;2022-07-10T05:58:18;16.80;;;4.68;;
37847;SDS011;23688;33.130;-117.188;2022-07-10T06:00:44;11.05;;;4.15;;
37847;SDS011;23688;33.130;-117.188;2022-07-10T06:03:12;11.18;;;4.82;;
37847;SDS011;23688;33.130;-117.188;2022-07-10T06:05:39;10.20;;;4.88;;
37847;SDS011;23688;33.130;-117.188;2022-07-10T06:08:05;13.07;;;5.45;;
37847;SDS011;23688;33.130;-117.188;2022-07-10T06:10:31;8.98;;;4.47;;
37847;SDS011;23688;33.130;-117.188;2022-07-10T06:13:00;14.27;;;4.32;;
37847;SDS011;23688;33.130;-117.188;2022-07-10T06:15:30;9.80;;;4.75;;
37847;SDS011;23688;33.130;-117.188;2022-07-10T06:17:56;11.32;;;5.45;;
37847;SDS011;23688;33.130;-117.188;2022-07-10T06:20:24;14.77;;;5.15;;
37847;SDS011;23688;33.130;-117.188;2022-07-10T06:22:57;14.43;;;5.38;;
37847;SDS011;23688;33.130;-117.188;2022-07-10T06:25:23;11.65;;;5.63;;
37847;SDS011;23688;33.130;-117.188;2022-07-10T06:27:50;11.57;;;5.50;;
37847;SDS011;23688;33.130;-117.188;2022-07-10T06:30:16;9.50;;;4.95;;
37847;SDS011;23688;33.130;-117.188;2022-07-10T06:32:43;16.30;;;6.10;;
37847;SDS011;23688;33.130;-117.188;2022-07-10T06:37:37;11.77;;;5.20;;
37847;SDS011;23688;33.130;-117.188;2022-07-10T06:40:04;17.23;;;5.97;;
37847;SDS011;23688;33.130;-117.188;2022-07-10T06:42:31;18.77;;;5.85;;
37847;SDS011;23688;33.130;-117.188;2022-07-10T06:44:57;21.90;;;6.60;;
37847;SDS011;23688;33.130;-117.188;2022-07-10T06:47:23;10.73;;;5.53;;
37847;SDS011;23688;33.130;-117.188;2022-07-10T06:50:08;11.60;;;5.13;;
37847;SDS011;23688;33.130;-117.188;2022-07-10T06:52:35;10.98;;;5.22;;
37847;SDS011;23688;33.130;-117.188;2022-07-10T06:55:02;12.18;;;5.32;;
37847;SDS011;23688;33.130;-117.188;2022-07-10T06:57:29;11.73;;;5.43;;
37847;SDS011;23688;33.130;-117.188;2022-07-10T06:59:56;20.35;;;5.88;;
37847;SDS011;23688;33.130;-117.188;2022-07-10T07:02:23;14.98;;;5.55;;
37847;SDS011;23688;33.130;-117.188;2022-07-10T07:04:53;9.50;;;5.90;;
37847;SDS011;23688;33.130;-117.188;2022-07-10T07:07:19;12.88;;;5.35;;
37847;SDS011;23688;33.130;-117.188;2022-07-10T07:09:45;15.75;;;6.30;;
37847;SDS011;23688;33.130;-117.188;2022-07-10T07:12:15;13.20;;;5.30;;
37847;SDS011;23688;33.130;-117.188;2022-07-10T07:14:43;13.57;;;6.50;;
37847;SDS011;23688;33.130;-117.188;2022-07-10T07:17:09;13.55;;;5.32;;
37847;SDS011;23688;33.130;-117.188;2022-07-10T07:19:39;13.88;;;6.60;;
37847;SDS011;23688;33.130;-117.188;2022-07-10T07:22:23;13.60;;;5.55;;
37847;SDS011;23688;33.130;-117.188;2022-07-10T07:25:25;12.10;;;5.95;;
37847;SDS011;23688;33.130;-117.188;2022-07-10T07:27:51;15.57;;;6.03;;
37847;SDS011;23688;33.130;-117.188;2022-07-10T07:30:18;14.02;;;6.18;;
37847;SDS011;23688;33.130;-117.188;2022-07-10T07:32:45;17.95;;;6.68;;
37847;SDS011;23688;33.130;-117.188;2022-07-10T07:35:13;18.17;;;7.97;;
37847;SDS011;23688;33.130;-117.188;2022-07-10T07:37:45;28.05;;;8.45;;
37847;SDS011;23688;33.130;-117.188;2022-07-10T07:40:13;24.40;;;8.02;;
37847;SDS011;23688;33.130;-117.188;2022-07-10T07:45:07;20.35;;;8.50;;
37847;SDS011;23688;33.130;-117.188;2022-07-10T07:47:45;21.42;;;8.63;;
37847;SDS011;23688;33.130;-117.188;2022-07-10T07:50:20;22.20;;;8.70;;
37847;SDS011;23688;33.130;-117.188;2022-07-10T07:52:48;19.73;;;9.45;;
37847;SDS011;23688;33.130;-117.188;2022-07-10T07:55:15;20.48;;;10.10;;
37847;SDS011;23688;33.130;-117.188;2022-07-10T07:57:43;21.58;;;10.13;;
37847;SDS011;23688;33.130;-117.188;2022-07-10T08:00:11;23.25;;;11.10;;
37847;SDS011;23688;33.130;-117.188;2022-07-10T08:02:38;20.30;;;10.95;;
37847;SDS011;23688;33.130;-117.188;2022-07-10T08:05:05;20.77;;;10.73;;
37847;SDS011;23688;33.130;-117.188;2022-07-10T08:07:36;21.33;;;11.77;;
37847;SDS011;23688;33.130;-117.188;2022-07-10T08:10:04;17.05;;;9.95;;
37847;SDS011;23688;33.130;-117.188;2022-07-10T08:12:33;23.77;;;10.43;;
37847;SDS011;23688;33.130;-117.188;2022-07-10T08:14:59;24.73;;;11.18;;
37847;SDS011;23688;33.130;-117.188;2022-07-10T08:17:26;24.15;;;11.35;;
37847;SDS011;23688;33.130;-117.188;2022-07-10T08:19:52;16.65;;;11.52;;
37847;SDS011;23688;33.130;-117.188;2022-07-10T08:22:19;20.23;;;9.73;;
37847;SDS011;23688;33.130;-117.188;2022-07-10T08:24:45;22.83;;;10.32;;
37847;SDS011;23688;33.130;-117.188;2022-07-10T08:27:12;19.42;;;10.75;;
37847;SDS011;23688;33.130;-117.188;2022-07-10T08:29:38;21.73;;;10.70;;
37847;SDS011;23688;33.130;-117.188;2022-07-10T08:32:04;19.20;;;11.57;;
37847;SDS011;23688;33.130;-117.188;2022-07-10T08:34:31;23.45;;;10.52;;
37847;SDS011;23688;33.130;-117.188;2022-07-10T08:36:58;20.95;;;9.80;;
37847;SDS011;23688;33.130;-117.188;2022-07-10T08:39:24;25.15;;;11.10;;
37847;SDS011;23688;33.130;-117.188;2022-07-10T08:41:51;23.10;;;10.57;;
37847;SDS011;23688;33.130;-117.188;2022-07-10T08:44:17;19.50;;;11.60;;
37847;SDS011;23688;33.130;-117.188;2022-07-10T08:46:44;29.27;;;12.10;;
37847;SDS011;23688;33.130;-117.188;2022-07-10T08:49:11;20.77;;;11.73;;
37847;SDS011;23688;33.130;-117.188;2022-07-10T08:51:45;22.00;;;10.73;;
37847;SDS011;23688;33.130;-117.188;2022-07-10T08:54:19;24.83;;;11.10;;
37847;SDS011;23688;33.130;-117.188;2022-07-10T08:56:47;21.00;;;12.07;;
37847;SDS011;23688;33.130;-117.188;2022-07-10T08:59:14;21.52;;;11.73;;
37847;SDS011;23688;33.130;-117.188;2022-07-10T09:01:41;25.33;;;12.07;;
37847;SDS011;23688;33.130;-117.188;2022-07-10T09:04:14;21.45;;;11.70;;
37847;SDS011;23688;33.130;-117.188;2022-07-10T09:06:46;19.27;;;11.80;;
37847;SDS011;23688;33.130;-117.188;2022-07-10T09:09:12;22.02;;;12.27;;
37847;SDS011;23688;33.130;-117.188;2022-07-10T09:11:39;26.85;;;12.32;;
37847;SDS011;23688;33.130;-117.188;2022-07-10T09:14:08;19.48;;;10.77;;
37847;SDS011;23688;33.130;-117.188;2022-07-10T09:16:45;15.95;;;9.80;;
37847;SDS011;23688;33.130;-117.188;2022-07-10T09:19:17;26.92;;;11.73;;
37847;SDS011;23688;33.130;-117.188;2022-07-10T09:21:49;23.92;;;12.07;;
37847;SDS011;23688;33.130;-117.188;2022-07-10T09:24:15;20.95;;;11.88;;
37847;SDS011;23688;33.130;-117.188;2022-07-10T09:27:05;22.85;;;10.82;;
37847;SDS011;23688;33.130;-117.188;2022-07-10T09:29:31;20.38;;;11.38;;
37847;SDS011;23688;33.130;-117.188;2022-07-10T09:31:59;29.45;;;13.48;;
37847;SDS011;23688;33.130;-117.188;2022-07-10T09:34:43;24.15;;;12.35;;
37847;SDS011;23688;33.130;-117.188;2022-07-10T09:37:40;17.52;;;12.15;;
37847;SDS011;23688;33.130;-117.188;2022-07-10T09:40:08;18.60;;;11.77;;
37847;SDS011;23688;33.130;-117.188;2022-07-10T09:53:02;24.73;;;12.25;;
37847;SDS011;23688;33.130;-117.188;2022-07-10T09:55:35;20.77;;;11.93;;
37847;SDS011;23688;33.130;-117.188;2022-07-10T09:58:03;19.20;;;11.97;;
37847;SDS011;23688;33.130;-117.188;2022-07-10T10:03:09;26.95;;;12.63;;
37847;SDS011;23688;33.130;-117.188;2022-07-10T10:05:45;30.75;;;14.82;;
37847;SDS011;23688;33.130;-117.188;2022-07-10T10:08:24;32.42;;;15.70;;
37847;SDS011;23688;33.130;-117.188;2022-07-10T10:10:53;42.00;;;15.73;;
37847;SDS011;23688;33.130;-117.188;2022-07-10T10:13:25;30.73;;;15.18;;
37847;SDS011;23688;33.130;-117.188;2022-07-10T10:15:53;25.63;;;15.27;;
37847;SDS011;23688;33.130;-117.188;2022-07-10T10:18:21;25.73;;;15.35;;
37847;SDS011;23688;33.130;-117.188;2022-07-10T10:20:49;25.65;;;15.52;;
37847;SDS011;23688;33.130;-117.188;2022-07-10T10:23:19;24.48;;;15.20;;
37847;SDS011;23688;33.130;-117.188;2022-07-10T10:25:54;25.40;;;16.42;;
37847;SDS011;23688;33.130;-117.188;2022-07-10T10:28:22;29.95;;;16.58;;
37847;SDS011;23688;33.130;-117.188;2022-07-10T10:30:51;30.48;;;16.63;;
37847;SDS011;23688;33.130;-117.188;2022-07-10T10:35:59;29.33;;;17.05;;
37847;SDS011;23688;33.130;-117.188;2022-07-10T10:38:56;29.63;;;17.38;;
37847;SDS011;23688;33.130;-117.188;2022-07-10T10:41:22;31.35;;;16.08;;
37847;SDS011;23688;33.130;-117.188;2022-07-10T10:46:35;30.63;;;16.60;;
37847;SDS011;23688;33.130;-117.188;2022-07-10T10:49:24;25.63;;;15.35;;
37847;SDS011;23688;33.130;-117.188;2022-07-10T10:52:03;31.70;;;17.77;;
37847;SDS011;23688;33.130;-117.188;2022-07-10T10:57:43;28.23;;;16.27;;
37847;SDS011;23688;33.130;-117.188;2022-07-10T11:00:29;24.30;;;15.55;;
37847;SDS011;23688;33.130;-117.188;2022-07-10T11:03:11;28.25;;;18.00;;
37847;SDS011;23688;33.130;-117.188;2022-07-10T11:05:43;30.42;;;19.00;;
37847;SDS011;23688;33.130;-117.188;2022-07-10T11:08:10;42.45;;;22.17;;
37847;SDS011;23688;33.130;-117.188;2022-07-10T11:10:41;37.70;;;22.67;;
37847;SDS011;23688;33.130;-117.188;2022-07-10T11:13:12;38.83;;;20.75;;
37847;SDS011;23688;33.130;-117.188;2022-07-10T11:15:40;35.47;;;22.15;;
37847;SDS011;23688;33.130;-117.188;2022-07-10T11:18:18;34.40;;;21.08;;
37847;SDS011;23688;33.130;-117.188;2022-07-10T11:20:53;43.08;;;23.73;;
37847;SDS011;23688;33.130;-117.188;2022-07-10T11:29:05;40.75;;;22.88;;
37847;SDS011;23688;33.130;-117.188;2022-07-10T11:31:32;38.38;;;22.42;;
37847;SDS011;23688;33.130;-117.188;2022-07-10T11:34:10;32.55;;;19.45;;
37847;SDS011;23688;33.130;-117.188;2022-07-10T11:36:38;32.78;;;21.15;;
37847;SDS011;23688;33.130;-117.188;2022-07-10T11:39:05;34.70;;;21.85;;
37847;SDS011;23688;33.130;-117.188;2022-07-10T11:41:33;40.50;;;22.95;;
37847;SDS011;23688;33.130;-117.188;2022-07-10T11:44:01;42.08;;;23.65;;
37847;SDS011;23688;33.130;-117.188;2022-07-10T11:46:32;41.47;;;22.17;;
37847;SDS011;23688;33.130;-117.188;2022-07-10T11:49:05;33.70;;;23.73;;
37847;SDS011;23688;33.130;-117.188;2022-07-10T11:51:33;37.38;;;22.45;;
37847;SDS011;23688;33.130;-117.188;2022-07-10T11:56:50;38.13;;;21.58;;
37847;SDS011;23688;33.130;-117.188;2022-07-10T11:59:18;39.80;;;22.58;;
37847;SDS011;23688;33.130;-117.188;2022-07-10T12:01:50;33.38;;;21.70;;
37847;SDS011;23688;33.130;-117.188;2022-07-10T12:04:21;41.63;;;22.57;;
37847;SDS011;23688;33.130;-117.188;2022-07-10T12:06:53;29.17;;;20.95;;
37847;SDS011;23688;33.130;-117.188;2022-07-10T12:09:21;32.95;;;20.38;;
37847;SDS011;23688;33.130;-117.188;2022-07-10T12:12:01;32.15;;;19.88;;
37847;SDS011;23688;33.130;-117.188;2022-07-10T12:14:29;33.97;;;21.23;;
37847;SDS011;23688;33.130;-117.188;2022-07-10T12:16:58;35.53;;;19.85;;
37847;SDS011;23688;33.130;-117.188;2022-07-10T12:19:28;30.80;;;19.88;;
37847;SDS011;23688;33.130;-117.188;2022-07-10T12:21:58;28.30;;;18.77;;
37847;SDS011;23688;33.130;-117.188;2022-07-10T12:24:26;36.97;;;20.30;;
37847;SDS011;23688;33.130;-117.188;2022-07-10T12:26:53;41.92;;;20.13;;
37847;SDS011;23688;33.130;-117.188;2022-07-10T12:29:25;39.97;;;21.20;;
37847;SDS011;23688;33.130;-117.188;2022-07-10T12:31:53;32.78;;;19.60;;
37847;SDS011;23688;33.130;-117.188;2022-07-10T12:34:33;36.10;;;20.55;;
37847;SDS011;23688;33.130;-117.188;2022-07-10T12:37:08;33.40;;;20.60;;
37847;SDS011;23688;33.130;-117.188;2022-07-10T12:39:36;32.58;;;20.40;;
37847;SDS011;23688;33.130;-117.188;2022-07-10T12:42:06;36.38;;;22.17;;
37847;SDS011;23688;33.130;-117.188;2022-07-10T12:47:09;34.90;;;21.00;;
37847;SDS011;23688;33.130;-117.188;2022-07-10T12:52:45;39.72;;;22.02;;
37847;SDS011;23688;33.130;-117.188;2022-07-10T12:55:19;28.77;;;20.98;;
37847;SDS011;23688;33.130;-117.188;2022-07-10T13:00:18;90.25;;;22.85;;
37847;SDS011;23688;33.130;-117.188;2022-07-10T13:02:49;84.47;;;22.25;;
37847;SDS011;23688;33.130;-117.188;2022-07-10T13:05:41;65.75;;;22.10;;
37847;SDS011;23688;33.130;-117.188;2022-07-10T13:08:21;30.73;;;20.00;;
37847;SDS011;23688;33.130;-117.188;2022-07-10T13:10:54;47.92;;;21.98;;
37847;SDS011;23688;33.130;-117.188;2022-07-10T13:13:22;61.08;;;22.75;;
37847;SDS011;23688;33.130;-117.188;2022-07-10T13:15:48;62.92;;;22.08;;
37847;SDS011;23688;33.130;-117.188;2022-07-10T13:18:25;32.15;;;21.60;;
37847;SDS011;23688;33.130;-117.188;2022-07-10T13:20:53;74.03;;;23.13;;
37847;SDS011;23688;33.130;-117.188;2022-07-10T13:23:21;34.03;;;22.67;;
37847;SDS011;23688;33.130;-117.188;2022-07-10T13:25:49;66.87;;;24.50;;
37847;SDS011;23688;33.130;-117.188;2022-07-10T13:28:16;59.38;;;24.50;;
37847;SDS011;23688;33.130;-117.188;2022-07-10T13:30:42;163.38;;;27.85;;
37847;SDS011;23688;33.130;-117.188;2022-07-10T13:33:09;111.80;;;26.25;;
37847;SDS011;23688;33.130;-117.188;2022-07-10T13:35:36;107.75;;;25.50;;
37847;SDS011;23688;33.130;-117.188;2022-07-10T13:38:03;36.03;;;22.73;;
37847;SDS011;23688;33.130;-117.188;2022-07-10T13:40:31;34.10;;;21.48;;
37847;SDS011;23688;33.130;-117.188;2022-07-10T13:42:59;44.05;;;22.45;;
37847;SDS011;23688;33.130;-117.188;2022-07-10T13:45:26;53.10;;;24.10;;
37847;SDS011;23688;33.130;-117.188;2022-07-10T13:48:08;36.65;;;22.70;;
37847;SDS011;23688;33.130;-117.188;2022-07-10T13:50:39;42.25;;;24.83;;
37847;SDS011;23688;33.130;-117.188;2022-07-10T13:53:06;39.13;;;23.90;;
37847;SDS011;23688;33.130;-117.188;2022-07-10T13:55:33;39.30;;;23.20;;
37847;SDS011;23688;33.130;-117.188;2022-07-10T13:57:59;42.20;;;23.83;;
37847;SDS011;23688;33.130;-117.188;2022-07-10T14:00:46;40.38;;;23.60;;
37847;SDS011;23688;33.130;-117.188;2022-07-10T14:03:12;37.13;;;23.30;;
37847;SDS011;23688;33.130;-117.188;2022-07-10T14:05:38;40.13;;;23.75;;
37847;SDS011;23688;33.130;-117.188;2022-07-10T14:08:05;39.90;;;23.90;;
37847;SDS011;23688;33.130;-117.188;2022-07-10T14:10:31;36.60;;;24.13;;
37847;SDS011;23688;33.130;-117.188;2022-07-10T14:12:57;49.83;;;22.52;;
37847;SDS011;23688;33.130;-117.188;2022-07-10T14:15:24;32.15;;;20.83;;
37847;SDS011;23688;33.130;-117.188;2022-07-10T14:17:51;37.88;;;22.90;;
37847;SDS011;23688;33.130;-117.188;2022-07-10T14:20:17;36.85;;;20.67;;
37847;SDS011;23688;33.130;-117.188;2022-07-10T14:22:44;36.13;;;20.05;;
37847;SDS011;23688;33.130;-117.188;2022-07-10T14:25:12;34.00;;;20.50;;
37847;SDS011;23688;33.130;-117.188;2022-07-10T14:27:38;28.05;;;18.70;;
37847;SDS011;23688;33.130;-117.188;2022-07-10T14:30:05;37.47;;;18.42;;
37847;SDS011;23688;33.130;-117.188;2022-07-10T14:32:32;26.73;;;18.15;;
37847;SDS011;23688;33.130;-117.188;2022-07-10T14:34:58;31.65;;;21.08;;
37847;SDS011;23688;33.130;-117.188;2022-07-10T14:37:24;35.40;;;20.83;;
37847;SDS011;23688;33.130;-117.188;2022-07-10T14:39:51;30.95;;;19.63;;
37847;SDS011;23688;33.130;-117.188;2022-07-10T14:42:17;32.17;;;21.50;;
37847;SDS011;23688;33.130;-117.188;2022-07-10T14:44:44;34.60;;;20.80;;